sensor_id;sensor_type;location;lat;lon;timestamp;pressure;altitude;pressure_sealevel;temperature;humidity
13594;BME280;6449;47.666;9.160;2022-11-04T00:00:54;96236.63;;;10.30;100.00
13594;BME280;6449;47.666;9.160;2022-11-04T00:05:47;96243.72;;;10.18;100.00
13594;BME280;6449;47.666;9.160;2022-11-04T00:10:41;96247.28;;;10.17;100.00
13594;BME280;6449;47.666;9.160;2022-11-04T00:15:51;96243.72;;;10.18;100.00
13594;BME280;6449;47.666;9.160;2022-11-04T00:21:03;96240.00;;;10.20;100.00
13594;BME280;6449;47.666;9.160;2022-11-04T00:26:14;96250.34;;;10.22;100.00
13594;BME280;6449;47.666;9.160;2022-11-04T00:31:24;96253.22;;;10.19;100.00
13594;BME280;6449;47.666;9.160;2022-11-04T00:36:37;96243.09;;;10.26;100.00
13594;BME280;6449;47.666;9.160;2022-11-04T00:41:30;96257.50;;;10.20;100.00
13594;BME280;6449;47.666;9.160;2022-11-04T00:46:24;96248.13;;;10.17;100.00
13594;BME280;6449;47.666;9.160;2022-11-04T00:51:17;96272.22;;;10.32;100.00
13594;BME280;6449;47.666;9.160;2022-11-04T00:56:14;96284.19;;;10.25;100.00
13594;BME280;6449;47.666;9.160;2022-11-04T01:01:09;96280.72;;;10.04;100.00
13594;BME280;6449;47.666;9.160;2022-11-04T01:06:04;96278.78;;;10.06;100.00
13594;BME280;6449;47.666;9.160;2022-11-04T01:11:00;96283.78;;;10.09;100.00
13594;BME280;6449;47.666;9.160;2022-11-04T01:15:57;96288.75;;;10.12;100.00
13594;BME280;6449;47.666;9.160;2022-11-04T01:20:50;96287.16;;;10.20;100.00
13594;BME280;6449;47.666;9.160;2022-11-04T01:25:43;96279.81;;;9.93;100.00
13594;BME280;6449;47.666;9.160;2022-11-04T01:30:37;96277.00;;;9.85;100.00
13594;BME280;6449;47.666;9.160;2022-11-04T01:35:32;96268.75;;;9.90;100.00
13594;BME280;6449;47.666;9.160;2022-11-04T01:40:25;96279.50;;;10.08;100.00
13594;BME280;6449;47.666;9.160;2022-11-04T01:45:20;96288.44;;;10.05;100.00
13594;BME280;6449;47.666;9.160;2022-11-04T01:50:20;96289.78;;;10.00;100.00
13594;BME280;6449;47.666;9.160;2022-11-04T01:55:20;96310.97;;;9.76;100.00
13594;BME280;6449;47.666;9.160;2022-11-04T02:00:16;96305.78;;;9.64;100.00
13594;BME280;6449;47.666;9.160;2022-11-04T02:05:10;96303.16;;;9.64;100.00
13594;BME280;6449;47.666;9.160;2022-11-04T02:10:04;96296.75;;;9.57;100.00
13594;BME280;6449;47.666;9.160;2022-11-04T02:15:00;96276.28;;;9.62;100.00
13594;BME280;6449;47.666;9.160;2022-11-04T02:20:09;96281.13;;;9.67;100.00
13594;BME280;6449;47.666;9.160;2022-11-04T02:25:36;96282.03;;;9.77;100.00
13594;BME280;6449;47.666;9.160;2022-11-04T02:30:46;96276.88;;;9.66;100.00
13594;BME280;6449;47.666;9.160;2022-11-04T02:35:49;96280.75;;;9.71;100.00
13594;BME280;6449;47.666;9.160;2022-11-04T02:41:01;96269.47;;;9.71;100.00
13594;BME280;6449;47.666;9.160;2022-11-04T02:46:04;96271.03;;;9.62;100.00
13594;BME280;6449;47.666;9.160;2022-11-04T02:51:05;96267.03;;;9.79;100.00
13594;BME280;6449;47.666;9.160;2022-11-04T02:56:04;96260.44;;;9.64;100.00
13594;BME280;6449;47.666;9.160;2022-11-04T03:01:03;96269.78;;;9.78;100.00
13594;BME280;6449;47.666;9.160;2022-11-04T03:06:00;96265.19;;;9.70;100.00
13594;BME280;6449;47.666;9.160;2022-11-04T03:11:02;96270.72;;;9.56;100.00
13594;BME280;6449;47.666;9.160;2022-11-04T03:16:02;96262.59;;;9.38;100.00
13594;BME280;6449;47.666;9.160;2022-11-04T03:21:05;96253.06;;;9.37;100.00
13594;BME280;6449;47.666;9.160;2022-11-04T03:26:12;96232.59;;;9.42;100.00
13594;BME280;6449;47.666;9.160;2022-11-04T03:31:17;96240.81;;;9.69;100.00
13594;BME280;6449;47.666;9.160;2022-11-04T03:36:12;96234.03;;;9.67;100.00
13594;BME280;6449;47.666;9.160;2022-11-04T03:41:12;96236.56;;;9.78;100.00
13594;BME280;6449;47.666;9.160;2022-11-04T03:46:08;96259.00;;;9.71;100.00
13594;BME280;6449;47.666;9.160;2022-11-04T03:51:01;96270.81;;;9.65;100.00
13594;BME280;6449;47.666;9.160;2022-11-04T03:56:40;96271.13;;;9.72;100.00
13594;BME280;6449;47.666;9.160;2022-11-04T04:01:49;96238.13;;;9.60;100.00
13594;BME280;6449;47.666;9.160;2022-11-04T04:06:47;96204.09;;;9.60;100.00
13594;BME280;6449;47.666;9.160;2022-11-04T04:11:52;96188.25;;;9.40;100.00
13594;BME280;6449;47.666;9.160;2022-11-04T04:16:52;96172.88;;;9.47;100.00
13594;BME280;6449;47.666;9.160;2022-11-04T04:21:52;96163.88;;;9.19;100.00
13594;BME280;6449;47.666;9.160;2022-11-04T04:26:48;96171.25;;;9.14;100.00
13594;BME280;6449;47.666;9.160;2022-11-04T04:32:03;96182.84;;;9.21;100.00
13594;BME280;6449;47.666;9.160;2022-11-04T04:37:02;96191.66;;;9.20;100.00
13594;BME280;6449;47.666;9.160;2022-11-04T04:41:57;96200.06;;;9.35;100.00
13594;BME280;6449;47.666;9.160;2022-11-04T04:47:15;96224.63;;;9.43;100.00
13594;BME280;6449;47.666;9.160;2022-11-04T04:52:11;96227.13;;;9.45;100.00
13594;BME280;6449;47.666;9.160;2022-11-04T04:57:04;96247.28;;;9.33;100.00
13594;BME280;6449;47.666;9.160;2022-11-04T05:01:57;96229.41;;;9.38;100.00
13594;BME280;6449;47.666;9.160;2022-11-04T05:06:52;96214.00;;;9.24;100.00
13594;BME280;6449;47.666;9.160;2022-11-04T05:11:46;96190.25;;;9.16;100.00
13594;BME280;6449;47.666;9.160;2022-11-04T05:16:39;96174.69;;;9.14;100.00
13594;BME280;6449;47.666;9.160;2022-11-04T05:21:32;96154.50;;;9.16;100.00
13594;BME280;6449;47.666;9.160;2022-11-04T05:26:27;96164.00;;;9.17;100.00
13594;BME280;6449;47.666;9.160;2022-11-04T05:31:20;96173.50;;;9.18;100.00
13594;BME280;6449;47.666;9.160;2022-11-04T05:36:15;96170.19;;;9.16;100.00
13594;BME280;6449;47.666;9.160;2022-11-04T05:41:11;96173.25;;;9.22;100.00
13594;BME280;6449;47.666;9.160;2022-11-04T05:46:18;96179.31;;;9.22;100.00
13594;BME280;6449;47.666;9.160;2022-11-04T05:51:13;96198.50;;;9.11;100.00
13594;BME280;6449;47.666;9.160;2022-11-04T05:56:06;96205.69;;;9.19;100.00
13594;BME280;6449;47.666;9.160;2022-11-04T06:01:25;96201.91;;;9.23;100.00
13594;BME280;6449;47.666;9.160;2022-11-04T06:06:19;96202.13;;;9.20;100.00
13594;BME280;6449;47.666;9.160;2022-11-04T06:11:13;96202.13;;;9.20;100.00
13594;BME280;6449;47.666;9.160;2022-11-04T06:16:07;96201.81;;;9.13;100.00
13594;BME280;6449;47.666;9.160;2022-11-04T06:21:19;96194.31;;;9.09;100.00
13594;BME280;6449;47.666;9.160;2022-11-04T06:26:14;96181.06;;;9.01;100.00
13594;BME280;6449;47.666;9.160;2022-11-04T06:31:11;96184.13;;;9.06;100.00
13594;BME280;6449;47.666;9.160;2022-11-04T06:36:10;96187.81;;;9.03;100.00
13594;BME280;6449;47.666;9.160;2022-11-04T06:41:05;96173.41;;;9.09;100.00
13594;BME280;6449;47.666;9.160;2022-11-04T06:46:01;96173.41;;;9.09;100.00
13594;BME280;6449;47.666;9.160;2022-11-04T06:50:54;96185.06;;;9.05;100.00
13594;BME280;6449;47.666;9.160;2022-11-04T06:55:50;96180.59;;;8.96;100.00
13594;BME280;6449;47.666;9.160;2022-11-04T07:00:43;96182.13;;;8.98;100.00
13594;BME280;6449;47.666;9.160;2022-11-04T07:05:37;96168.47;;;8.95;100.00
13594;BME280;6449;47.666;9.160;2022-11-04T07:10:30;96160.16;;;9.01;100.00
13594;BME280;6449;47.666;9.160;2022-11-04T07:15:25;96156.16;;;9.17;100.00
13594;BME280;6449;47.666;9.160;2022-11-04T07:20:18;96145.34;;;9.32;100.00
13594;BME280;6449;47.666;9.160;2022-11-04T07:25:12;96147.59;;;9.36;100.00
13594;BME280;6449;47.666;9.160;2022-11-04T07:30:07;96152.06;;;9.45;100.00
13594;BME280;6449;47.666;9.160;2022-11-04T07:35:02;96160.69;;;9.36;100.00
13594;BME280;6449;47.666;9.160;2022-11-04T07:39:55;96165.53;;;9.41;100.00
13594;BME280;6449;47.666;9.160;2022-11-04T07:44:49;96151.38;;;9.43;100.00
13594;BME280;6449;47.666;9.160;2022-11-04T07:49:44;96154.19;;;9.52;100.00
13594;BME280;6449;47.666;9.160;2022-11-04T07:54:39;96148.19;;;9.61;100.00
13594;BME280;6449;47.666;9.160;2022-11-04T07:59:33;96148.75;;;9.64;100.00
13594;BME280;6449;47.666;9.160;2022-11-04T08:04:26;96152.31;;;9.63;100.00
13594;BME280;6449;47.666;9.160;2022-11-04T08:09:20;96152.50;;;9.71;100.00
13594;BME280;6449;47.666;9.160;2022-11-04T08:14:15;96151.84;;;9.79;100.00
13594;BME280;6449;47.666;9.160;2022-11-04T08:19:09;96161.25;;;9.82;100.00
13594;BME280;6449;47.666;9.160;2022-11-04T08:24:02;96163.34;;;9.88;100.00
13594;BME280;6449;47.666;9.160;2022-11-04T08:28:56;96196.72;;;9.95;100.00
13594;BME280;6449;47.666;9.160;2022-11-04T08:33:55;96230.75;;;9.95;100.00
13594;BME280;6449;47.666;9.160;2022-11-04T08:38:48;96236.97;;;9.94;100.00
13594;BME280;6449;47.666;9.160;2022-11-04T08:43:42;96223.09;;;10.04;100.00
13594;BME280;6449;47.666;9.160;2022-11-04T08:48:37;96219.94;;;10.10;100.00
13594;BME280;6449;47.666;9.160;2022-11-04T08:53:33;96218.22;;;10.20;100.00
13594;BME280;6449;47.666;9.160;2022-11-04T08:58:27;96206.78;;;10.21;100.00
13594;BME280;6449;47.666;9.160;2022-11-04T09:03:20;96196.69;;;10.16;100.00
13594;BME280;6449;47.666;9.160;2022-11-04T09:08:16;96181.28;;;10.23;100.00
13594;BME280;6449;47.666;9.160;2022-11-04T09:13:12;96176.66;;;10.36;100.00
13594;BME280;6449;47.666;9.160;2022-11-04T09:18:07;96187.47;;;10.22;100.00
13594;BME280;6449;47.666;9.160;2022-11-04T09:23:00;96187.53;;;10.32;100.00
13594;BME280;6449;47.666;9.160;2022-11-04T09:27:53;96179.91;;;10.49;100.00
13594;BME280;6449;47.666;9.160;2022-11-04T09:32:48;96166.69;;;10.61;100.00
13594;BME280;6449;47.666;9.160;2022-11-04T09:37:44;96161.59;;;10.69;100.00
13594;BME280;6449;47.666;9.160;2022-11-04T09:42:52;96164.19;;;10.69;100.00
13594;BME280;6449;47.666;9.160;2022-11-04T09:47:56;96164.66;;;10.84;100.00
13594;BME280;6449;47.666;9.160;2022-11-04T09:52:55;96166.47;;;10.93;100.00
13594;BME280;6449;47.666;9.160;2022-11-04T09:57:55;96161.88;;;10.85;100.00
13594;BME280;6449;47.666;9.160;2022-11-04T10:03:03;96172.66;;;11.01;100.00
13594;BME280;6449;47.666;9.160;2022-11-04T10:13:56;96157.34;;;11.07;100.00
13594;BME280;6449;47.666;9.160;2022-11-04T10:19:27;96163.84;;;11.12;100.00
13594;BME280;6449;47.666;9.160;2022-11-04T10:24:41;96158.88;;;11.19;100.00
13594;BME280;6449;47.666;9.160;2022-11-04T10:29:40;96155.03;;;11.13;100.00
13594;BME280;6449;47.666;9.160;2022-11-04T10:34:52;96147.41;;;11.20;100.00
13594;BME280;6449;47.666;9.160;2022-11-04T10:39:47;96140.94;;;11.24;100.00
13594;BME280;6449;47.666;9.160;2022-11-04T10:44:50;96143.25;;;11.27;100.00
13594;BME280;6449;47.666;9.160;2022-11-04T10:49:59;96140.06;;;11.33;100.00
13594;BME280;6449;47.666;9.160;2022-11-04T10:55:37;96131.38;;;11.42;100.00
13594;BME280;6449;47.666;9.160;2022-11-04T11:00:38;96130.25;;;11.45;100.00
13594;BME280;6449;47.666;9.160;2022-11-04T11:05:33;96133.03;;;11.43;100.00
13594;BME280;6449;47.666;9.160;2022-11-04T11:10:30;96121.00;;;11.50;100.00
13594;BME280;6449;47.666;9.160;2022-11-04T11:15:31;96124.00;;;11.65;100.00
13594;BME280;6449;47.666;9.160;2022-11-04T11:20:26;96124.81;;;11.75;100.00
13594;BME280;6449;47.666;9.160;2022-11-04T11:25:25;96098.69;;;11.74;100.00
13594;BME280;6449;47.666;9.160;2022-11-04T11:30:23;96092.66;;;11.64;100.00
13594;BME280;6449;47.666;9.160;2022-11-04T11:35:17;96094.94;;;11.30;100.00
13594;BME280;6449;47.666;9.160;2022-11-04T11:40:26;96097.13;;;11.34;100.00
13594;BME280;6449;47.666;9.160;2022-11-04T11:45:26;96097.84;;;11.17;100.00
13594;BME280;6449;47.666;9.160;2022-11-04T11:50:24;96094.38;;;11.07;100.00
13594;BME280;6449;47.666;9.160;2022-11-04T11:55:28;96102.66;;;11.21;100.00
13594;BME280;6449;47.666;9.160;2022-11-04T12:00:25;96089.97;;;11.17;100.00
13594;BME280;6449;47.666;9.160;2022-11-04T12:05:35;96101.84;;;11.01;100.00
13594;BME280;6449;47.666;9.160;2022-11-04T12:11:03;96102.25;;;10.97;100.00
13594;BME280;6449;47.666;9.160;2022-11-04T12:16:23;96104.47;;;11.01;100.00
13594;BME280;6449;47.666;9.160;2022-11-04T12:21:23;96109.44;;;11.24;100.00
13594;BME280;6449;47.666;9.160;2022-11-04T12:26:36;96098.38;;;11.30;100.00
13594;BME280;6449;47.666;9.160;2022-11-04T12:31:45;96101.53;;;11.34;100.00
13594;BME280;6449;47.666;9.160;2022-11-04T12:37:00;96106.53;;;11.37;100.00
13594;BME280;6449;47.666;9.160;2022-11-04T12:42:13;96112.75;;;11.45;100.00
13594;BME280;6449;47.666;9.160;2022-11-04T12:47:31;96110.22;;;11.44;100.00
13594;BME280;6449;47.666;9.160;2022-11-04T12:52:52;96111.47;;;11.40;100.00
13594;BME280;6449;47.666;9.160;2022-11-04T12:58:03;96116.59;;;11.32;100.00
13594;BME280;6449;47.666;9.160;2022-11-04T13:03:07;96114.69;;;11.24;100.00
13594;BME280;6449;47.666;9.160;2022-11-04T13:08:11;96112.50;;;11.19;100.00
13594;BME280;6449;47.666;9.160;2022-11-04T13:13:23;96116.06;;;11.18;100.00
13594;BME280;6449;47.666;9.160;2022-11-04T13:18:22;96115.53;;;11.15;100.00
13594;BME280;6449;47.666;9.160;2022-11-04T13:24:00;96116.34;;;11.15;100.00
13594;BME280;6449;47.666;9.160;2022-11-04T13:29:19;96111.66;;;11.19;100.00
13594;BME280;6449;47.666;9.160;2022-11-04T13:34:26;96102.41;;;11.15;100.00
13594;BME280;6449;47.666;9.160;2022-11-04T13:39:30;96101.59;;;11.14;100.00
13594;BME280;6449;47.666;9.160;2022-11-04T13:44:29;96104.78;;;11.08;100.00
13594;BME280;6449;47.666;9.160;2022-11-04T13:49:26;96094.28;;;11.08;100.00
13594;BME280;6449;47.666;9.160;2022-11-04T13:54:29;96095.94;;;11.09;100.00
13594;BME280;6449;47.666;9.160;2022-11-04T13:59:31;96103.22;;;11.06;100.00
13594;BME280;6449;47.666;9.160;2022-11-04T14:04:44;96110.28;;;11.15;100.00
13594;BME280;6449;47.666;9.160;2022-11-04T14:09:54;96114.28;;;11.19;100.00
13594;BME280;6449;47.666;9.160;2022-11-04T14:15:03;96119.13;;;11.14;100.00
13594;BME280;6449;47.666;9.160;2022-11-04T14:20:00;96120.63;;;11.07;100.00
13594;BME280;6449;47.666;9.160;2022-11-04T14:25:23;96119.25;;;10.93;100.00
13594;BME280;6449;47.666;9.160;2022-11-04T14:30:44;96122.16;;;10.90;100.00
13594;BME280;6449;47.666;9.160;2022-11-04T14:35:40;96123.25;;;10.87;100.00
13594;BME280;6449;47.666;9.160;2022-11-04T14:41:13;96127.78;;;10.85;100.00
13594;BME280;6449;47.666;9.160;2022-11-04T14:46:10;96130.16;;;10.79;100.00
13594;BME280;6449;47.666;9.160;2022-11-04T14:51:04;96137.88;;;10.90;100.00
13594;BME280;6449;47.666;9.160;2022-11-04T14:56:11;96139.84;;;10.97;100.00
13594;BME280;6449;47.666;9.160;2022-11-04T15:01:15;96140.09;;;11.04;100.00
13594;BME280;6449;47.666;9.160;2022-11-04T15:06:10;96131.66;;;11.00;100.00
13594;BME280;6449;47.666;9.160;2022-11-04T15:11:11;96137.59;;;11.12;100.00
13594;BME280;6449;47.666;9.160;2022-11-04T15:22:34;96151.69;;;11.11;100.00
13594;BME280;6449;47.666;9.160;2022-11-04T15:27:29;96158.16;;;11.07;100.00
13594;BME280;6449;47.666;9.160;2022-11-04T15:32:36;96156.94;;;11.01;100.00
13594;BME280;6449;47.666;9.160;2022-11-04T15:37:30;96155.69;;;10.77;100.00
13594;BME280;6449;47.666;9.160;2022-11-04T15:42:27;96160.34;;;10.63;100.00
13594;BME280;6449;47.666;9.160;2022-11-04T15:47:35;96154.94;;;10.55;100.00
13594;BME280;6449;47.666;9.160;2022-11-04T15:52:29;96164.25;;;10.38;100.00
13594;BME280;6449;47.666;9.160;2022-11-04T15:57:27;96175.34;;;10.21;100.00
13594;BME280;6449;47.666;9.160;2022-11-04T16:02:27;96187.31;;;10.14;100.00
13594;BME280;6449;47.666;9.160;2022-11-04T16:07:23;96185.91;;;10.10;100.00
13594;BME280;6449;47.666;9.160;2022-11-04T16:12:26;96188.81;;;10.07;100.00
13594;BME280;6449;47.666;9.160;2022-11-04T16:17:21;96195.81;;;10.06;100.00
13594;BME280;6449;47.666;9.160;2022-11-04T16:22:25;96187.31;;;10.14;100.00
13594;BME280;6449;47.666;9.160;2022-11-04T16:27:22;96191.00;;;10.02;100.00
13594;BME280;6449;47.666;9.160;2022-11-04T16:32:23;96204.84;;;9.92;100.00
13594;BME280;6449;47.666;9.160;2022-11-04T16:37:17;96209.94;;;9.94;100.00
13594;BME280;6449;47.666;9.160;2022-11-04T16:42:14;96207.78;;;9.99;100.00
13594;BME280;6449;47.666;9.160;2022-11-04T16:47:09;96208.88;;;9.96;100.00
13594;BME280;6449;47.666;9.160;2022-11-04T16:52:05;96214.66;;;10.00;100.00
13594;BME280;6449;47.666;9.160;2022-11-04T16:57:02;96219.78;;;10.02;100.00
13594;BME280;6449;47.666;9.160;2022-11-04T17:01:59;96232.09;;;10.11;100.00
13594;BME280;6449;47.666;9.160;2022-11-04T17:06:52;96256.75;;;9.87;100.00
13594;BME280;6449;47.666;9.160;2022-11-04T17:11:46;96264.41;;;9.79;100.00
13594;BME280;6449;47.666;9.160;2022-11-04T17:16:40;96257.06;;;9.94;100.00
13594;BME280;6449;47.666;9.160;2022-11-04T17:21:34;96265.50;;;9.97;100.00
13594;BME280;6449;47.666;9.160;2022-11-04T17:26:27;96278.78;;;10.06;100.00
13594;BME280;6449;47.666;9.160;2022-11-04T17:31:21;96281.75;;;10.12;100.00
13594;BME280;6449;47.666;9.160;2022-11-04T17:36:17;96293.97;;;10.12;100.00
13594;BME280;6449;47.666;9.160;2022-11-04T17:41:12;96297.84;;;10.08;100.00
13594;BME280;6449;47.666;9.160;2022-11-04T17:46:23;96300.53;;;10.17;100.00
13594;BME280;6449;47.666;9.160;2022-11-04T17:51:30;96319.28;;;10.22;100.00
13594;BME280;6449;47.666;9.160;2022-11-04T17:56:25;96326.22;;;10.23;100.00
13594;BME280;6449;47.666;9.160;2022-11-04T18:01:21;96344.59;;;10.12;100.00
13594;BME280;6449;47.666;9.160;2022-11-04T18:06:15;96357.09;;;10.09;100.00
13594;BME280;6449;47.666;9.160;2022-11-04T18:11:10;96353.72;;;10.18;100.00
13594;BME280;6449;47.666;9.160;2022-11-04T18:16:25;96374.75;;;10.07;100.00
13594;BME280;6449;47.666;9.160;2022-11-04T18:21:19;96383.81;;;10.03;100.00
13594;BME280;6449;47.666;9.160;2022-11-04T18:26:13;96394.56;;;9.88;100.00
13594;BME280;6449;47.666;9.160;2022-11-04T18:31:08;96389.91;;;9.92;100.00
13594;BME280;6449;47.666;9.160;2022-11-04T18:36:04;96399.44;;;9.93;100.00
13594;BME280;6449;47.666;9.160;2022-11-04T18:40:59;96422.16;;;9.92;100.00
13594;BME280;6449;47.666;9.160;2022-11-04T18:45:55;96412.75;;;9.90;100.00
13594;BME280;6449;47.666;9.160;2022-11-04T18:50:51;96415.03;;;9.83;100.00
13594;BME280;6449;47.666;9.160;2022-11-04T18:55:49;96409.66;;;9.85;100.00
13594;BME280;6449;47.666;9.160;2022-11-04T19:00:46;96425.41;;;9.74;100.00
13594;BME280;6449;47.666;9.160;2022-11-04T19:05:49;96435.78;;;9.64;100.00
13594;BME280;6449;47.666;9.160;2022-11-04T19:10:52;96439.81;;;9.68;100.00
13594;BME280;6449;47.666;9.160;2022-11-04T19:16:04;96434.81;;;9.76;100.00
13594;BME280;6449;47.666;9.160;2022-11-04T19:21:06;96440.75;;;9.78;100.00
13594;BME280;6449;47.666;9.160;2022-11-04T19:26:10;96448.47;;;9.80;100.00
13594;BME280;6449;47.666;9.160;2022-11-04T19:31:09;96459.56;;;9.72;100.00
13594;BME280;6449;47.666;9.160;2022-11-04T19:36:09;96479.69;;;9.71;100.00
13594;BME280;6449;47.666;9.160;2022-11-04T19:41:10;96482.50;;;9.80;100.00
13594;BME280;6449;47.666;9.160;2022-11-04T19:46:26;96498.38;;;9.67;100.00
13594;BME280;6449;47.666;9.160;2022-11-04T19:51:22;96511.59;;;9.65;100.00
13594;BME280;6449;47.666;9.160;2022-11-04T19:56:24;96520.38;;;9.64;100.00
13594;BME280;6449;47.666;9.160;2022-11-04T20:01:19;96528.25;;;9.64;100.00
13594;BME280;6449;47.666;9.160;2022-11-04T20:06:18;96525.59;;;9.53;100.00
13594;BME280;6449;47.666;9.160;2022-11-04T20:11:13;96540.03;;;9.59;100.00
13594;BME280;6449;47.666;9.160;2022-11-04T20:16:16;96540.59;;;9.74;100.00
13594;BME280;6449;47.666;9.160;2022-11-04T20:21:10;96555.94;;;9.67;100.00
13594;BME280;6449;47.666;9.160;2022-11-04T20:26:09;96561.19;;;9.67;100.00
13594;BME280;6449;47.666;9.160;2022-11-04T20:31:17;96580.81;;;9.50;100.00
13594;BME280;6449;47.666;9.160;2022-11-04T20:36:12;96580.31;;;9.56;100.00
13594;BME280;6449;47.666;9.160;2022-11-04T20:41:09;96593.41;;;9.45;100.00
13594;BME280;6449;47.666;9.160;2022-11-04T20:46:10;96598.84;;;9.31;100.00
13594;BME280;6449;47.666;9.160;2022-11-04T20:51:06;96596.00;;;9.34;100.00
13594;BME280;6449;47.666;9.160;2022-11-04T20:56:00;96604.69;;;9.34;100.00
13594;BME280;6449;47.666;9.160;2022-11-04T21:01:00;96625.50;;;9.36;100.00
13594;BME280;6449;47.666;9.160;2022-11-04T21:05:54;96628.38;;;9.55;100.00
13594;BME280;6449;47.666;9.160;2022-11-04T21:10:49;96638.59;;;9.58;100.00
13594;BME280;6449;47.666;9.160;2022-11-04T21:15:42;96640.50;;;9.45;100.00
13594;BME280;6449;47.666;9.160;2022-11-04T21:20:39;96642.16;;;9.46;100.00
13594;BME280;6449;47.666;9.160;2022-11-04T21:25:39;96640.84;;;9.40;100.00
13594;BME280;6449;47.666;9.160;2022-11-04T21:30:35;96647.31;;;9.59;100.00
13594;BME280;6449;47.666;9.160;2022-11-04T21:35:29;96658.97;;;9.55;100.00
13594;BME280;6449;47.666;9.160;2022-11-04T21:40:25;96661.06;;;9.38;100.00
13594;BME280;6449;47.666;9.160;2022-11-04T21:45:19;96674.25;;;9.37;100.00
13594;BME280;6449;47.666;9.160;2022-11-04T21:50:16;96681.53;;;9.44;100.00
13594;BME280;6449;47.666;9.160;2022-11-04T21:55:12;96685.63;;;9.60;100.00
13594;BME280;6449;47.666;9.160;2022-11-04T22:00:09;96702.41;;;9.80;100.00
13594;BME280;6449;47.666;9.160;2022-11-04T22:05:03;96701.50;;;9.45;100.00
13594;BME280;6449;47.666;9.160;2022-11-04T22:09:58;96705.47;;;9.62;100.00
13594;BME280;6449;47.666;9.160;2022-11-04T22:14:51;96713.75;;;9.45;100.00
13594;BME280;6449;47.666;9.160;2022-11-04T22:19:44;96713.44;;;9.50;100.00
13594;BME280;6449;47.666;9.160;2022-11-04T22:24:38;96716.88;;;9.26;100.00
13594;BME280;6449;47.666;9.160;2022-11-04T22:29:32;96712.28;;;9.30;100.00
13594;BME280;6449;47.666;9.160;2022-11-04T22:34:26;96709.03;;;9.26;100.00
13594;BME280;6449;47.666;9.160;2022-11-04T22:39:19;96715.47;;;9.22;100.00
13594;BME280;6449;47.666;9.160;2022-11-04T22:44:13;96707.84;;;9.19;100.00
13594;BME280;6449;47.666;9.160;2022-11-04T22:49:07;96719.69;;;9.12;100.00
13594;BME280;6449;47.666;9.160;2022-11-04T22:54:01;96731.31;;;9.08;100.00
13594;BME280;6449;47.666;9.160;2022-11-04T22:59:00;96721.47;;;9.11;100.00
13594;BME280;6449;47.666;9.160;2022-11-04T23:03:56;96721.31;;;9.02;100.00
13594;BME280;6449;47.666;9.160;2022-11-04T23:08:51;96719.84;;;8.98;100.00
13594;BME280;6449;47.666;9.160;2022-11-04T23:13:53;96731.38;;;8.95;100.00
13594;BME280;6449;47.666;9.160;2022-11-04T23:19:11;96724.69;;;8.91;100.00
13594;BME280;6449;47.666;9.160;2022-11-04T23:24:13;96715.97;;;9.03;100.00
13594;BME280;6449;47.666;9.160;2022-11-04T23:29:26;96728.78;;;8.82;100.00
13594;BME280;6449;47.666;9.160;2022-11-04T23:34:37;96720.75;;;8.85;100.00
13594;BME280;6449;47.666;9.160;2022-11-04T23:39:52;96730.69;;;8.80;100.00
13594;BME280;6449;47.666;9.160;2022-11-04T23:44:48;96737.59;;;8.81;100.00
13594;BME280;6449;47.666;9.160;2022-11-04T23:49:59;96734.66;;;8.86;100.00
13594;BME280;6449;47.666;9.160;2022-11-04T23:55:11;96749.00;;;8.80;100.00
